Latest Weather Observations for Albury

IDV60801

Issued at 8:31 pm EST Thursday 3 September 2015 (issued every 30 minutes, with the page automatically refreshed every 10 minutes)

About weather observations | Map of weather stations | Latest weather observations for VIC | Other Formats
Station Details ID: 072160 Name: ALBURY AIRPORT AWS Lat: -36.07 Lon: 146.95 Height: 163.5 m
Data from the previous 72 hours. | See also: Recent months at Albury
Date/Time
EST
Temp
°C
App
Temp
°C
Dew
Point
Rel
Hum
%
Delta-T
°C
Wind Press
QNH
hPa
Press
MSL
hPa
Rain
since 9 am
mm
Dir
 
Spd
km/h
Gust
km/h
Spd
kts
Gust
kts
03/08:30pm 9.9 7.7 6.4 79 1.6 SSE 7 13 4 7 1017.4 1017.4 1.2
03/08:00pm 11.8 8.8 6.1 68 2.7 NNE 11 15 6 8 1017.0 1017.0 1.2
03/07:30pm 11.3 9.1 6.0 70 2.5 S 7 9 4 5 1016.4 1016.4 1.2
03/07:00pm 13.7 10.5 5.3 57 4.0 ESE 11 15 6 8 1016.0 1016.0 1.2
03/06:30pm 13.0 10.0 6.1 63 3.3 ENE 11 13 6 7 1015.4 1015.5 1.2
03/06:00pm 13.8 11.2 5.9 59 3.8 S 9 11 5 6 1014.9 1015.0 1.2
03/05:30pm 15.2 12.5 5.7 53 4.6 S 9 15 5 8 1014.4 1014.5 1.2
03/05:00pm 16.4 13.4 6.2 51 5.0 S 11 13 6 7 1013.8 1013.9 1.2
03/04:30pm 17.1 13.5 5.1 45 5.8 S 13 17 7 9 1013.0 1013.0 1.2
03/04:00pm 17.4 12.6 4.7 43 6.1 SSW 19 26 10 14 1012.5 1012.5 1.0
03/03:30pm 17.5 12.9 6.4 48 5.5 SSW 20 28 11 15 1012.1 1012.1 1.0
03/03:00pm 17.0 12.1 5.0 45 5.8 S 20 28 11 15 1011.7 1011.7 1.0
03/02:30pm 16.8 12.2 6.3 50 5.2 SSW 20 30 11 16 1011.1 1011.1 1.0
03/02:00pm 16.5 12.6 6.9 53 4.8 SSW 17 26 9 14 1010.8 1010.8 1.0
03/01:30pm 16.6 12.2 7.5 55 4.6 SW 20 28 11 15 1010.5 1010.5 1.0
03/01:00pm 15.1 12.0 10.3 73 2.5 WSW 17 28 9 15 1010.4 1010.4 1.0
03/12:30pm 13.8 11.4 10.2 79 1.9 WSW 13 19 7 10 1010.5 1010.5 1.0
03/12:00pm 12.6 9.7 9.8 83 1.4 W 15 20 8 11 1010.4 1010.4 1.0
03/11:30am 12.4 9.4 9.1 80 1.7 W 15 20 8 11 1010.4 1010.4 1.0
03/11:00am 11.8 10.3 9.2 84 1.3 W 7 13 4 7 1010.2 1010.2 1.0
03/10:30am 11.1 9.4 9.9 92 0.6 WNW 9 11 5 6 1010.1 1010.1 1.0
03/10:00am 10.2 9.0 9.6 96 0.3 W 6 7 3 4 1009.9 1009.9 1.0
03/09:30am 10.3 8.2 9.7 96 0.3 WSW 11 13 6 7 1009.5 1009.5 0.4
03/09:00am 10.3 9.9 9.7 96 0.3 WNW 2 6 1 3 1009.0 1009.1 23.0
03/08:30am 9.9 9.1 9.8 99 0.1 WSW 4 7 2 4 1008.3 1008.4 23.0
03/08:00am 9.8 8.4 9.7 99 0.1 SW 7 9 4 5 1007.8 1007.8 22.6
03/07:30am 9.8 8.6 9.7 99 0.1 NNW 6 9 3 5 1007.2 1007.2 22.0
03/07:00am 9.4 8.1 9.3 99 0.1 S 6 7 3 4 1006.8 1006.8 21.8
03/06:30am 9.3 7.8 9.2 99 0.0 SSW 7 9 4 5 1006.2 1006.2 21.4
03/06:00am 9.3 8.0 9.2 99 0.0 SSE 6 9 3 5 1005.8 1005.8 21.0
03/05:30am 9.2 9.0 9.1 99 0.0 CALM 0 7 0 4 1005.4 1005.4 20.8
03/05:00am 9.3 8.0 9.2 99 0.0 SSW 6 6 3 3 1005.2 1005.2 20.2
03/04:30am 9.4 9.2 9.1 98 0.1 CALM 0 0 0 0 1004.9 1004.9 19.8
03/04:00am 9.4 9.2 9.1 98 0.1 CALM 0 0 0 0 1004.7 1004.7 19.2
03/03:30am 9.5 9.3 9.0 97 0.2 CALM 0 0 0 0 1004.6 1004.6 18.6
03/03:00am 9.6 8.7 9.1 97 0.2 WSW 4 7 2 4 1004.8 1004.8 18.4
03/02:30am 9.7 8.5 9.4 98 0.2 SSE 6 13 3 7 1005.1 1005.1 18.4
03/02:00am 9.8 7.2 9.5 98 0.2 SSE 13 17 7 9 1005.5 1005.5 18.0
03/01:30am 9.9 8.2 9.8 99 0.1 SSE 9 15 5 8 1005.9 1005.9 17.8
03/01:00am 10.0 7.6 9.9 99 0.1 SE 13 19 7 10 1006.3 1006.3 17.6
03/12:30am 10.0 7.2 9.9 99 0.1 S 15 20 8 11 1006.5 1006.5 16.8
03/12:00am 10.1 7.3 9.9 99 0.1 S 15 19 8 10 1007.0 1007.0 16.4
 
Date/Time
EST
Temp
°C
App
Temp
°C
Dew
Point
Rel
Hum
%
Delta-T
°C
Wind Press
QNH
hPa
Press
MSL
hPa
Rain
since 9 am
mm
Dir
 
Spd
km/h
Gust
km/h
Spd
kts
Gust
kts
02/11:34pm 10.2 7.0 10.0 99 0.1 SE 17 22 9 12 1007.4 1007.4 16.0
02/11:30pm 10.2 6.6 10.0 99 0.1 SE 19 24 10 13 1007.4 1007.4 15.8
02/11:00pm 10.3 7.5 10.0 98 0.2 SE 15 20 8 11 1008.0 1008.1 12.6
02/10:49pm 10.4 8.0 10.1 98 0.2 ESE 13 19 7 10 1008.4 1008.5 10.6
02/10:30pm 10.5 8.5 10.2 98 0.2 ESE 11 15 6 8 1008.5 1008.6 8.8
02/10:00pm 10.7 8.7 10.2 97 0.3 E 11 13 6 7 1008.6 1008.7 6.8
02/09:45pm 10.7 9.4 10.1 96 0.3 ESE 7 9 4 5 1008.5 1008.6 5.6
02/09:30pm 10.9 9.8 10.0 94 0.5 SSW 6 7 3 4 1008.8 1008.9 5.0
02/09:08pm 11.2 9.5 9.9 92 0.7 WSW 9 13 5 7 1009.0 1009.1 3.2
02/09:00pm 11.2 9.1 9.9 92 0.7 WSW 11 13 6 7 1008.9 1009.0 2.4
02/08:35pm 11.5 9.4 9.8 89 0.9 NW 11 13 6 7 1008.3 1008.4 1.6
02/08:30pm 11.6 10.5 9.9 89 0.9 N 6 13 3 7 1008.2 1008.3 1.6
02/08:14pm 12.2 10.7 9.2 82 1.5 SE 7 9 4 5 1007.6 1007.6 1.2
02/08:00pm 12.6 10.7 8.9 78 1.9 SE 9 13 5 7 1007.4 1007.4 0.2
02/07:30pm 13.8 10.9 8.2 69 2.8 E 13 20 7 11 1007.8 1007.8 0.0
02/07:00pm 14.0 12.8 9.4 74 2.4 SSW 6 9 3 5 1008.4 1008.5 0.0
02/06:30pm 13.3 12.1 8.2 71 2.6 E 4 7 2 4 1008.0 1008.1 0.0
02/06:00pm 14.6 12.6 7.2 61 3.7 E 7 9 4 5 1007.6 1007.6 0.0
02/05:30pm 14.4 12.5 7.5 63 3.4 ESE 7 9 4 5 1007.6 1007.6 0.0
02/05:00pm 14.5 12.6 7.5 63 3.5 SSE 7 9 4 5 1007.6 1007.6 0.0
02/04:30pm 15.2 12.7 8.0 62 3.6 ESE 11 13 6 7 1008.2 1008.3 0.0
02/04:00pm 16.0 13.7 7.5 57 4.3 ENE 9 13 5 7 1008.8 1008.9 0.0
02/03:30pm 16.7 13.4 6.5 51 5.0 ENE 13 19 7 10 1008.7 1008.8 0.0
02/03:00pm 16.7 12.4 7.1 53 4.8 E 19 28 10 15 1008.9 1009.0 0.0
02/02:30pm 17.1 11.7 6.3 49 5.3 ENE 24 32 13 17 1009.5 1009.5 0.0
02/02:00pm 16.8 13.1 6.3 50 5.2 NE 15 24 8 13 1010.5 1010.5 0.0
02/01:30pm 16.4 12.7 6.2 51 5.0 NE 15 24 8 13 1011.2 1011.2 0.0
02/01:00pm 16.1 12.2 7.3 56 4.4 ENE 17 24 9 13 1011.8 1011.8 0.0
02/12:30pm 15.6 12.6 7.6 59 4.0 E 13 24 7 13 1012.5 1012.5 0.0
02/12:00pm 14.1 10.6 7.2 63 3.4 SE 15 20 8 11 1013.3 1013.4 0.0
02/11:30am 13.5 9.7 7.7 68 2.9 SE 17 20 9 11 1013.9 1014.0 0.0
02/11:00am 12.2 9.0 6.9 70 2.6 ESE 13 20 7 11 1014.5 1014.6 0.0
02/10:30am 11.7 8.9 7.0 73 2.3 ESE 11 15 6 8 1015.3 1015.4 0.0
02/10:00am 10.4 7.8 6.2 75 2.0 SSE 9 15 5 8 1015.8 1015.8 0.0
02/09:30am 9.3 7.1 6.2 81 1.4 ESE 7 11 4 6 1016.2 1016.2 0.0
02/09:00am 7.6 5.3 5.6 87 0.9 ESE 7 9 4 5 1016.5 1016.5 0.0
02/08:30am 6.3 4.0 4.9 91 0.6 E 6 7 3 4 1016.7 1016.7 0.0
02/08:00am 5.1 2.7 4.4 95 0.3 SSE 6 7 3 4 1016.8 1016.8 0.0
02/07:30am 4.1 2.7 3.8 98 0.1 CALM 0 0 0 0 1016.5 1016.5 0.0
02/07:00am 2.9 0.1 2.3 96 0.2 NE 6 9 3 5 1016.4 1016.4 0.0
02/06:30am 3.0 0.7 2.6 97 0.2 N 4 7 2 4 1016.4 1016.4 0.0
02/06:00am 3.0 1.4 2.6 97 0.2 CALM 0 0 0 0 1016.3 1016.3 0.0
02/05:30am 2.5 0.8 1.9 96 0.2 CALM 0 6 0 3 1016.4 1016.4 0.0
02/05:00am 3.1 1.5 2.7 97 0.2 CALM 0 0 0 0 1016.3 1016.3 0.0
02/04:30am 3.2 1.7 2.9 98 0.1 CALM 0 0 0 0 1016.1 1016.1 0.0
02/04:00am 2.7 1.1 2.4 98 0.1 CALM 0 0 0 0 1016.1 1016.1 0.0
02/03:30am 2.7 0.7 2.3 97 0.2 NE 2 6 1 3 1016.2 1016.2 0.0
02/03:00am 3.4 0.8 3.1 98 0.1 ESE 6 7 3 4 1016.7 1016.7 0.0
02/02:30am 3.0 1.4 2.6 97 0.2 CALM 0 0 0 0 1016.9 1016.9 0.0
02/02:08am 2.5 0.8 1.8 95 0.3 CALM 0 0 0 0 1017.0 1017.0 0.0
02/02:00am 2.6 0.9 2.0 96 0.2 CALM 0 0 0 0 1017.0 1017.0 0.0
02/01:54am 2.6 0.9 1.9 95 0.3 CALM 0 0 0 0 1017.0 1017.0 0.0
02/01:30am 3.1 1.4 2.1 93 0.4 CALM 0 4 0 2 1017.2 1017.2 0.0
02/01:00am 3.7 1.8 3.0 95 0.3 NW 2 6 1 3 1017.2 1017.2 0.0
02/12:30am 3.7 0.8 2.8 94 0.4 NNW 7 9 4 5 1017.3 1017.3 0.0
02/12:00am 4.5 3.1 3.6 94 0.4 CALM 0 0 0 0 1017.1 1017.1 0.0
 
Date/Time
EST
Temp
°C
App
Temp
°C
Dew
Point
Rel
Hum
%
Delta-T
°C
Wind Press
QNH
hPa
Press
MSL
hPa
Rain
since 9 am
mm
Dir
 
Spd
km/h
Gust
km/h
Spd
kts
Gust
kts
01/11:30pm 4.5 3.1 3.5 93 0.4 CALM 0 0 0 0 1017.2 1017.2 0.0
01/11:00pm 5.3 4.0 4.0 91 0.6 CALM 0 4 0 2 1017.4 1017.4 0.0
01/10:30pm 5.5 3.1 4.5 93 0.4 N 6 7 3 4 1017.1 1017.1 0.0
01/10:00pm 5.1 3.4 3.9 92 0.5 ENE 2 7 1 4 1016.9 1016.9 0.0
01/09:30pm 5.8 4.6 4.6 92 0.5 CALM 0 0 0 0 1016.8 1016.8 0.0
01/09:00pm 6.3 5.1 4.5 88 0.8 CALM 0 6 0 3 1016.9 1016.9 0.0
01/08:30pm 7.2 6.1 4.9 85 1.0 CALM 0 0 0 0 1016.6 1016.6 0.0
01/08:00pm 7.7 6.5 4.7 81 1.3 CALM 0 0 0 0 1016.2 1016.2 0.0
01/07:30pm 8.0 5.6 5.1 82 1.3 N 7 9 4 5 1015.8 1015.8 0.0
01/07:00pm 9.0 6.7 4.8 75 1.9 NNW 6 7 3 4 1015.5 1015.6 0.0
01/06:30pm 10.2 9.0 4.6 68 2.5 CALM 0 0 0 0 1015.3 1015.4 0.0
01/06:00pm 11.7 10.5 4.4 61 3.3 CALM 0 0 0 0 1015.2 1015.3 0.0
01/05:30pm 13.0 10.6 4.4 56 4.0 NW 6 7 3 4 1015.0 1015.1 0.0
01/05:00pm 14.1 12.8 4.1 51 4.6 CALM 0 7 0 4 1014.8 1014.9 0.0
01/04:30pm 14.4 11.7 2.9 46 5.2 W 6 7 3 4 1014.7 1014.8 0.0
01/04:00pm 14.4 11.5 4.7 52 4.5 NNW 9 13 5 7 1014.9 1015.0 0.0
01/03:30pm 14.5 12.0 4.8 52 4.6 WNW 7 13 4 7 1015.2 1015.3 0.0
01/03:00pm 14.2 11.2 3.9 50 4.7 WNW 9 17 5 9 1015.5 1015.6 0.0
01/02:30pm 14.1 11.4 5.5 56 4.1 N 9 17 5 9 1015.6 1015.7 0.0
01/02:00pm 13.7 10.0 4.6 54 4.2 WSW 13 19 7 10 1015.9 1015.9 0.0
01/01:30pm 13.8 10.7 5.7 58 3.9 NW 11 17 6 9 1016.2 1016.2 0.0
01/01:00pm 13.2 9.5 4.4 55 4.1 WSW 13 22 7 12 1016.5 1016.5 0.0
01/12:30pm 12.7 9.5 4.9 59 3.6 WNW 11 17 6 9 1016.7 1016.7 0.0
01/12:00pm 12.1 9.9 5.3 63 3.2 W 6 13 3 7 1017.4 1017.4 0.0
01/11:30am 10.7 8.6 6.6 76 1.9 SE 7 9 4 5 1017.8 1017.8 0.0
01/11:00am 10.4 9.2 6.4 76 1.9 NNE 2 7 1 4 1018.1 1018.1 0.0
01/10:41am 9.2 7.7 6.6 84 1.2 E 4 7 2 4 1018.1 1018.1 0.0
01/10:30am 8.0 5.9 6.0 87 0.9 E 6 9 3 5 1018.2 1018.3 0.0
01/10:00am 6.2 4.9 5.8 97 0.2 W 2 6 1 3 1018.3 1018.4 0.0
01/09:54am 6.1 4.8 5.8 98 0.1 WNW 2 6 1 3 1018.2 1018.4 0.0
01/09:30am 5.4 3.2 5.3 99 0.0 NNE 6 11 3 6 1018.2 1018.4 0.0
01/09:00am 5.3 2.9 5.2 99 0.0 E 7 11 4 6 1018.0 1018.2 0.0
01/08:30am 4.6 2.2 4.5 99 0.0 NE 6 7 3 4 1018.0 1018.2 0.0
01/08:00am 4.6 3.4 4.5 99 0.0 CALM 0 0 0 0 1017.7 1017.9 0.0
01/07:47am 4.3 3.0 4.2 99 0.0 CALM 0 0 0 0 1017.6 1017.8 0.0
01/07:30am 3.8 2.4 3.7 99 0.0 CALM 0 0 0 0 1017.4 1017.6 0.0
01/07:22am 3.8 2.4 3.7 99 0.0 CALM 0 0 0 0 1017.5 1017.7 0.0
01/07:06am 3.5 2.1 3.4 99 0.0 CALM 0 0 0 0 1017.3 1017.5 0.0
01/07:00am 3.4 2.0 3.3 99 0.0 CALM 0 6 0 3 1017.3 1017.5 0.0
01/06:30am 3.0 1.5 2.9 99 0.0 CALM 0 0 0 0 1017.2 1017.4 0.0
01/06:00am 2.1 0.4 2.0 99 0.0 CALM 0 0 0 0 1017.1 1017.3 0.0
01/05:30am 2.0 0.3 1.7 98 0.1 CALM 0 0 0 0 1016.9 1017.1 0.0
01/05:17am 1.5 -0.3 1.2 98 0.1 CALM 0 0 0 0 1016.8 1017.0 0.0
01/05:00am 1.4 -0.4 1.0 97 0.2 CALM 0 0 0 0 1016.8 1017.0 0.0
01/04:52am 1.3 -0.5 0.9 97 0.2 CALM 0 0 0 0 1016.7 1016.9 0.0
01/04:30am 1.5 -0.3 1.1 97 0.2 CALM 0 0 0 0 1016.7 1016.9 0.0
01/04:24am 1.7 -0.1 1.3 97 0.2 CALM 0 0 0 0 1016.7 1016.9 0.0
01/04:00am 1.4 -0.5 0.7 95 0.3 CALM 0 0 0 0 1016.7 1016.9 0.0
01/03:30am 2.1 0.3 1.5 96 0.2 CALM 0 0 0 0 1016.8 1017.0 0.0
01/03:00am 2.6 1.0 2.2 97 0.2 CALM 0 0 0 0 1017.2 1017.4 0.0
01/02:30am 2.2 0.4 1.3 94 0.3 CALM 0 0 0 0 1017.5 1017.7 0.0
01/02:00am 3.1 1.5 2.5 96 0.2 CALM 0 0 0 0 1017.5 1017.7 0.0
01/01:30am 3.2 1.6 2.6 96 0.2 CALM 0 0 0 0 1017.7 1017.9 0.0
01/01:00am 3.6 1.7 2.7 94 0.4 ENE 2 6 1 3 1017.6 1017.8 0.0
01/12:30am 3.5 1.9 2.6 94 0.4 CALM 0 0 0 0 1017.7 1017.9 0.0
01/12:00am 4.4 3.0 3.8 96 0.3 CALM 0 0 0 0 1017.8 1018.0 0.0
 
Date/Time
EST
Temp
°C
App
Temp
°C
Dew
Point
Rel
Hum
%
Delta-T
°C
Wind Press
QNH
hPa
Press
MSL
hPa
Rain
since 9 am
mm
Dir
 
Spd
km/h
Gust
km/h
Spd
kts
Gust
kts
31/11:30pm 4.2 2.7 2.9 91 0.5 CALM 0 0 0 0 1017.7 1017.9 0.0
31/11:00pm 4.9 3.2 3.9 93 0.4 E 2 6 1 3 1017.8 1018.0 0.0
31/10:30pm 5.3 3.1 3.3 87 0.8 E 4 6 2 3 1017.7 1017.9 0.0
31/10:00pm 6.6 5.4 4.4 86 1.0 CALM 0 0 0 0 1017.7 1017.9 0.0
31/09:30pm 7.0 5.8 4.5 84 1.1 CALM 0 0 0 0 1017.6 1017.8 0.0
31/09:00pm 7.8 5.4 4.4 79 1.5 NW 6 6 3 3 1017.6 1017.8 0.0

Other Formats:

Comma delimited format used in spreadsheet applications
http://www.bom.gov.au/fwo/IDV60801/IDV60801.95896.axf

JavaScript Object Notation format (JSON) in row-major order
http://www.bom.gov.au/fwo/IDV60801/IDV60801.95896.json